Time;durP1;ratioP1;P1;durP2;ratioP2;P2;SDS_P1;SDS_P2;PMS_P1;PMS_P2;Temp;Humidity;BMP_temperature;BMP_pressure;BME280_temperature;BME280_humidity;BME280_pressure;Samples;Min_cycle;Max_cycle;Signal;HPM_P1;HPM_P2
2021/12/20 00:01:10;;;;;;;;;;;0.10;99.90;;;;;;5100595;28;19908;-87
2021/12/20 00:03:39;;;;;;;;;;;0.30;99.90;;;;;;5103633;28;19911;-87
2021/12/20 00:06:10;;;;;;;;;;;0.40;99.90;;;;;;5088342;28;19908;-86
2021/12/20 00:08:42;;;;;;;;;;;0.30;99.90;;;;;;5103612;28;19904;-88
2021/12/20 00:11:10;;;;;;;;;;;0.30;99.90;;;;;;5101141;28;19995;-90
2021/12/20 00:13:38;;;;;;;;;;;0.30;99.90;;;;;;5098655;28;19959;-88
2021/12/20 00:16:09;;;;;;;;;;;0.20;99.90;;;;;;5098105;28;19908;-87
2021/12/20 00:18:45;;;;;;;;;;;0.20;99.90;;;;;;5097785;28;19904;-89
2021/12/20 00:21:11;;;;;;;;;;;0.20;99.90;;;;;;5097671;28;19998;-88
2021/12/20 00:23:40;;;;;;;;;;;0.20;99.90;;;;;;5098168;28;19955;-88
2021/12/20 00:26:13;;;;;;;;;;;0.30;99.90;;;;;;5098166;28;19995;-88
2021/12/20 00:28:44;;;;;;;;;;;0.20;99.90;;;;;;5097968;28;19904;-89
2021/12/20 00:31:30;;;;;;;;;;;0.10;99.90;;;;;;5097102;28;19908;-87
2021/12/20 00:33:59;;;;;;;;;;;0.10;99.90;;;;;;5098187;28;19946;-88
2021/12/20 00:36:30;;;;;;;;;;;0.10;99.90;;;;;;5098727;28;19904;-88
2021/12/20 00:41:48;;;;;;;;;;;0.10;99.90;;;;;;5099315;28;19946;-88
2021/12/20 00:44:25;;;;;;;;;;;0.10;99.90;;;;;;5100433;28;19953;-88
2021/12/20 00:46:56;;;;;;;;;;;0.20;99.90;;;;;;5102506;28;19904;-88
2021/12/20 00:49:28;;;;;;;;;;;0.20;99.90;;;;;;5101662;28;19908;-89
2021/12/20 00:52:09;;;;;;;;;;;0.10;99.90;;;;;;5102298;28;19904;-87
2021/12/20 00:54:38;;;;;;;;;;;0.20;99.90;;;;;;5101416;28;19908;-88
2021/12/20 00:57:04;;;;;;;;;;;0.10;99.90;;;;;;5101779;28;19959;-88
2021/12/20 00:59:45;;;;;;;;;;;0.10;99.90;;;;;;5101488;28;19908;-88
2021/12/20 01:02:13;;;;;;;;;;;0.10;99.90;;;;;;5093892;28;19908;-87
2021/12/20 01:05:09;;;;;;;;;;;0.20;99.90;;;;;;5100509;28;19911;-89
2021/12/20 01:07:46;;;;;;;;;;;0.20;99.90;;;;;;5100017;28;19904;-87
2021/12/20 01:10:16;;;;;;;;;;;0.10;99.90;;;;;;5101574;28;20282;-86
2021/12/20 01:12:58;;;;;;;;;;;0.10;99.90;;;;;;5101017;28;20003;-87
2021/12/20 01:15:36;;;;;;;;;;;0.10;99.90;;;;;;5103167;28;19955;-88
2021/12/20 01:18:10;;;;;;;;;;;0.10;99.90;;;;;;5102850;28;19904;-88
2021/12/20 01:20:41;;;;;;;;;;;0.10;99.90;;;;;;5102483;28;19904;-88
2021/12/20 01:23:17;;;;;;;;;;;0.20;99.90;;;;;;5100941;28;20035;-87
2021/12/20 01:25:46;;;;;;;;;;;0.20;99.90;;;;;;5099751;28;20049;-89
2021/12/20 01:28:18;;;;;;;;;;;0.10;99.90;;;;;;5101929;28;19955;-88
2021/12/20 01:30:59;;;;;;;;;;;0.30;99.90;;;;;;5100858;28;19908;-90
2021/12/20 01:33:30;;;;;;;;;;;0.30;99.90;;;;;;5101816;28;19904;-88
2021/12/20 01:35:58;;;;;;;;;;;0.20;99.90;;;;;;5102130;28;19908;-87
2021/12/20 01:38:38;;;;;;;;;;;0.20;99.90;;;;;;5101174;28;19926;-88
2021/12/20 01:41:06;;;;;;;;;;;0.20;99.90;;;;;;5082959;28;19908;-88
2021/12/20 01:43:44;;;;;;;;;;;0.20;99.90;;;;;;5099968;28;19912;-87
2021/12/20 01:46:13;;;;;;;;;;;0.20;99.90;;;;;;5100957;28;19904;-90
2021/12/20 01:48:57;;;;;;;;;;;0.20;99.90;;;;;;5099622;28;19904;-89
2021/12/20 01:54:10;;;;;;;;;;;0.20;99.90;;;;;;5101452;28;20366;-89
2021/12/20 01:56:39;;;;;;;;;;;0.30;99.90;;;;;;5099534;28;19904;-88
2021/12/20 01:59:09;;;;;;;;;;;0.20;99.90;;;;;;5101428;28;19915;-88
2021/12/20 02:01:35;;;;;;;;;;;0.10;99.90;;;;;;5099689;28;20347;-87
2021/12/20 02:04:05;;;;;;;;;;;0.10;99.90;;;;;;5100496;28;20262;-87
2021/12/20 02:06:46;;;;;;;;;;;0.20;99.90;;;;;;5100480;28;19946;-87
2021/12/20 02:09:15;;;;;;;;;;;0.20;99.90;;;;;;5099922;28;19972;-89
2021/12/20 02:11:42;;;;;;;;;;;0.20;99.90;;;;;;5100139;28;19911;-88
2021/12/20 02:14:11;;;;;;;;;;;0.20;99.90;;;;;;5103849;28;19951;-89
2021/12/20 02:16:40;;;;;;;;;;;0.20;99.90;;;;;;5104150;28;19904;-88
2021/12/20 02:19:13;;;;;;;;;;;0.20;99.90;;;;;;5103588;28;19904;-88
2021/12/20 02:21:45;;;;;;;;;;;0.20;99.90;;;;;;5082949;28;19912;-88
2021/12/20 02:24:14;;;;;;;;;;;0.20;99.90;;;;;;5099818;28;19904;-88
2021/12/20 02:26:40;;;;;;;;;;;0.20;99.90;;;;;;5098434;28;19904;-87
2021/12/20 02:29:08;;;;;;;;;;;0.30;99.90;;;;;;5098705;28;19908;-88
2021/12/20 02:37:26;;;;;;;;;;;0.20;99.90;;;;;;5099852;28;19926;-88
2021/12/20 02:39:58;;;;;;;;;;;0.20;99.90;;;;;;5098310;28;19940;-88
2021/12/20 02:42:37;;;;;;;;;;;0.20;99.90;;;;;;5098792;28;19969;-87
2021/12/20 02:45:23;;;;;;;;;;;0.10;99.90;;;;;;5098388;28;19908;-87
2021/12/20 02:47:57;;;;;;;;;;;0.20;99.90;;;;;;5098831;28;19912;-89
2021/12/20 02:50:28;;;;;;;;;;;0.20;99.90;;;;;;5098891;28;19908;-89
2021/12/20 02:53:04;;;;;;;;;;;0.20;99.90;;;;;;5116217;28;19911;-87
2021/12/20 02:55:35;;;;;;;;;;;0.20;99.90;;;;;;5099240;28;19907;-90
2021/12/20 02:58:06;;;;;;;;;;;0.30;99.90;;;;;;5098655;28;19919;-87
2021/12/20 03:00:34;;;;;;;;;;;0.30;99.90;;;;;;5100089;27;19915;-88
2021/12/20 03:03:11;;;;;;;;;;;0.30;99.90;;;;;;5086276;28;19979;-87
2021/12/20 03:05:37;;;;;;;;;;;0.20;99.90;;;;;;5088089;28;19908;-88
2021/12/20 03:08:04;;;;;;;;;;;0.10;99.90;;;;;;5103483;28;19943;-87
2021/12/20 03:10:31;;;;;;;;;;;0.10;99.90;;;;;;5103735;28;19904;-88
2021/12/20 03:13:02;;;;;;;;;;;0.10;99.90;;;;;;5101579;28;19904;-89
2021/12/20 03:15:30;;;;;;;;;;;0.00;99.90;;;;;;5101531;28;19912;-88
2021/12/20 03:17:58;;;;;;;;;;;0.10;99.90;;;;;;5100316;28;19990;-88
2021/12/20 03:20:26;;;;;;;;;;;0.00;99.90;;;;;;5099561;28;19919;-87
2021/12/20 03:22:55;;;;;;;;;;;0.00;99.90;;;;;;5099574;28;19912;-89
2021/12/20 03:25:26;;;;;;;;;;;0.00;99.90;;;;;;5099731;28;19958;-88
2021/12/20 03:27:55;;;;;;;;;;;0.10;99.90;;;;;;5099069;28;19930;-87
2021/12/20 03:30:25;;;;;;;;;;;0.10;99.90;;;;;;5082142;27;19954;-90
2021/12/20 03:32:51;;;;;;;;;;;0.00;99.90;;;;;;5099283;28;19900;-88
2021/12/20 03:35:22;;;;;;;;;;;0.10;99.90;;;;;;5098401;28;19915;-88
2021/12/20 03:37:48;;;;;;;;;;;0.10;99.90;;;;;;5100972;28;19908;-87
2021/12/20 03:40:19;;;;;;;;;;;0.10;99.90;;;;;;5111011;28;19904;-87
2021/12/20 03:42:47;;;;;;;;;;;0.10;99.90;;;;;;5100431;28;19972;-87
2021/12/20 03:45:14;;;;;;;;;;;0.10;99.90;;;;;;5097643;28;19927;-89
2021/12/20 03:47:43;;;;;;;;;;;0.10;99.90;;;;;;5080364;28;19908;-89
2021/12/20 03:50:09;;;;;;;;;;;0.10;99.90;;;;;;5097019;28;19911;-88
2021/12/20 03:52:44;;;;;;;;;;;0.20;99.90;;;;;;5097055;28;20002;-87
2021/12/20 03:55:11;;;;;;;;;;;0.30;99.90;;;;;;5097509;28;19930;-88
2021/12/20 03:57:37;;;;;;;;;;;0.30;99.90;;;;;;5080071;28;19916;-88
2021/12/20 04:00:07;;;;;;;;;;;0.20;99.90;;;;;;5097186;28;19919;-89
2021/12/20 04:02:44;;;;;;;;;;;0.20;99.90;;;;;;5096177;28;19999;-88
2021/12/20 04:05:19;;;;;;;;;;;0.10;99.90;;;;;;5096259;28;19908;-90
2021/12/20 04:07:53;;;;;;;;;;;0.10;99.90;;;;;;5096350;28;19973;-88
2021/12/20 04:10:24;;;;;;;;;;;0.10;99.90;;;;;;5095572;28;19958;-88
2021/12/20 04:12:58;;;;;;;;;;;0.10;99.90;;;;;;5096076;28;19905;-88
2021/12/20 04:15:30;;;;;;;;;;;0.00;99.90;;;;;;5096232;28;19974;-88
2021/12/20 04:18:25;;;;;;;;;;;0.10;99.90;;;;;;5098334;28;19943;-87
2021/12/20 04:20:51;;;;;;;;;;;0.20;99.90;;;;;;5102413;28;19950;-89
2021/12/20 04:23:19;;;;;;;;;;;0.20;99.90;;;;;;5102703;28;19908;-88
2021/12/20 04:25:49;;;;;;;;;;;0.20;99.90;;;;;;5102415;28;20270;-88
2021/12/20 04:28:24;;;;;;;;;;;0.10;99.90;;;;;;5102783;28;20278;-89
2021/12/20 04:31:00;;;;;;;;;;;0.10;99.90;;;;;;5103172;28;19957;-87
2021/12/20 04:33:32;;;;;;;;;;;0.20;99.90;;;;;;5105532;28;20347;-87
2021/12/20 04:36:00;;;;;;;;;;;0.10;99.90;;;;;;5088958;28;20300;-88
2021/12/20 04:38:35;;;;;;;;;;;0.20;99.90;;;;;;5104896;28;19908;-89
2021/12/20 04:41:06;;;;;;;;;;;0.20;99.90;;;;;;5103179;28;19912;-86
2021/12/20 04:43:40;;;;;;;;;;;0.20;99.90;;;;;;5103571;28;19908;-87
2021/12/20 04:46:12;;;;;;;;;;;0.20;99.90;;;;;;5103036;28;20327;-87
2021/12/20 04:48:43;;;;;;;;;;;0.20;99.90;;;;;;5104059;28;20347;-88
2021/12/20 04:51:11;;;;;;;;;;;0.20;99.90;;;;;;5102885;28;20445;-88
2021/12/20 04:53:37;;;;;;;;;;;0.30;99.90;;;;;;5103895;28;19916;-89
2021/12/20 04:56:05;;;;;;;;;;;0.30;99.90;;;;;;5087286;28;20244;-88
2021/12/20 04:58:34;;;;;;;;;;;0.40;99.90;;;;;;5103243;28;19912;-89
2021/12/20 05:00:59;;;;;;;;;;;0.30;99.90;;;;;;5102187;28;19992;-88
2021/12/20 05:03:31;;;;;;;;;;;0.30;99.90;;;;;;5102807;28;19946;-88
2021/12/20 05:06:05;;;;;;;;;;;0.30;99.90;;;;;;5102872;28;19954;-87
2021/12/20 05:08:46;;;;;;;;;;;0.20;99.90;;;;;;5085273;28;20278;-88
2021/12/20 05:11:14;;;;;;;;;;;0.20;99.90;;;;;;5102719;28;20033;-88
2021/12/20 05:13:46;;;;;;;;;;;0.20;99.90;;;;;;5102492;28;19943;-88
2021/12/20 05:16:20;;;;;;;;;;;0.20;99.90;;;;;;5102479;28;19920;-87
2021/12/20 05:18:46;;;;;;;;;;;0.20;99.90;;;;;;5102595;28;19904;-88
2021/12/20 05:21:21;;;;;;;;;;;0.20;99.90;;;;;;5102112;28;19912;-88
2021/12/20 05:23:51;;;;;;;;;;;0.10;99.90;;;;;;5085255;28;19961;-88
2021/12/20 05:26:22;;;;;;;;;;;0.20;99.90;;;;;;5101662;28;20404;-88
2021/12/20 05:28:49;;;;;;;;;;;0.20;99.90;;;;;;5101311;28;19904;-87
2021/12/20 05:31:14;;;;;;;;;;;0.10;99.90;;;;;;5096983;28;19908;-88
2021/12/20 05:33:40;;;;;;;;;;;0.10;99.90;;;;;;5098777;28;19904;-88
2021/12/20 05:36:06;;;;;;;;;;;0.10;99.90;;;;;;5098274;28;19904;-87
2021/12/20 05:38:32;;;;;;;;;;;0.10;99.90;;;;;;5097938;28;20304;-89
2021/12/20 05:40:57;;;;;;;;;;;0.00;99.90;;;;;;5099037;28;19955;-87
2021/12/20 05:43:23;;;;;;;;;;;0.10;99.90;;;;;;5099853;28;19911;-88
2021/12/20 05:45:50;;;;;;;;;;;0.10;99.90;;;;;;5083311;28;20293;-86
2021/12/20 05:48:15;;;;;;;;;;;0.10;99.90;;;;;;5099926;28;19904;-88
2021/12/20 05:50:41;;;;;;;;;;;0.10;99.90;;;;;;5099521;28;19957;-87
2021/12/20 05:53:09;;;;;;;;;;;0.10;99.90;;;;;;5104341;28;19911;-86
2021/12/20 05:55:35;;;;;;;;;;;0.10;99.90;;;;;;5106360;28;19922;-88
2021/12/20 05:58:00;;;;;;;;;;;0.00;99.90;;;;;;5107247;28;19912;-87
2021/12/20 06:00:31;;;;;;;;;;;0.10;99.90;;;;;;5108045;27;19939;-89
2021/12/20 06:03:00;;;;;;;;;;;0.00;99.90;;;;;;5108639;28;19908;-87
2021/12/20 06:05:28;;;;;;;;;;;0.00;99.90;;;;;;5105216;28;19904;-87
2021/12/20 06:07:54;;;;;;;;;;;0.10;99.90;;;;;;5107168;28;19957;-88
2021/12/20 06:10:20;;;;;;;;;;;0.10;99.90;;;;;;5102594;28;19904;-86
2021/12/20 06:12:46;;;;;;;;;;;0.10;99.90;;;;;;5099288;28;19904;-88
2021/12/20 06:15:12;;;;;;;;;;;0.10;99.90;;;;;;5099127;28;19915;-89
2021/12/20 06:17:38;;;;;;;;;;;0.10;99.90;;;;;;5100686;28;19910;-87
2021/12/20 06:20:05;;;;;;;;;;;0.00;99.90;;;;;;5082790;28;19912;-88
2021/12/20 06:22:31;;;;;;;;;;;0.10;99.90;;;;;;5116240;28;19964;-87
2021/12/20 06:24:57;;;;;;;;;;;0.10;99.90;;;;;;5098607;28;19942;-88
2021/12/20 06:27:22;;;;;;;;;;;0.10;99.90;;;;;;5097662;28;19987;-87
2021/12/20 06:29:48;;;;;;;;;;;0.10;99.90;;;;;;5096771;28;19904;-86
2021/12/20 06:32:14;;;;;;;;;;;0.00;99.90;;;;;;5096805;27;19915;-87
2021/12/20 06:34:39;;;;;;;;;;;0.00;99.90;;;;;;5086614;28;19915;-89
2021/12/20 06:37:05;;;;;;;;;;;0.10;99.90;;;;;;5096598;28;19946;-88
2021/12/20 06:39:31;;;;;;;;;;;0.20;99.90;;;;;;5097387;28;19908;-88
2021/12/20 06:41:59;;;;;;;;;;;0.00;99.90;;;;;;5088259;28;19910;-89
2021/12/20 06:44:25;;;;;;;;;;;0.00;99.90;;;;;;5088550;28;19908;-85
2021/12/20 06:46:52;;;;;;;;;;;-0.10;99.90;;;;;;5097345;28;20271;-88
2021/12/20 06:49:17;;;;;;;;;;;-0.10;99.90;;;;;;5096064;28;19970;-86
2021/12/20 06:51:43;;;;;;;;;;;-0.10;99.90;;;;;;5097893;28;19904;-87
2021/12/20 06:54:10;;;;;;;;;;;-0.10;99.90;;;;;;5079918;28;20012;-89
2021/12/20 06:56:36;;;;;;;;;;;-0.10;99.90;;;;;;5096888;28;19908;-87
2021/12/20 06:59:02;;;;;;;;;;;-0.10;99.90;;;;;;5096730;28;19957;-89
2021/12/20 07:01:28;;;;;;;;;;;-0.10;99.90;;;;;;5095830;28;19947;-88
2021/12/20 07:03:53;;;;;;;;;;;-0.10;99.90;;;;;;5096565;28;19913;-88
2021/12/20 07:06:19;;;;;;;;;;;-0.10;99.90;;;;;;5095697;28;19915;-89
2021/12/20 07:08:47;;;;;;;;;;;0.00;99.90;;;;;;5095826;28;19904;-90
2021/12/20 07:11:15;;;;;;;;;;;-0.10;99.90;;;;;;5095090;28;19908;-87
2021/12/20 07:13:41;;;;;;;;;;;-0.10;99.90;;;;;;5094891;28;19989;-88
2021/12/20 07:16:07;;;;;;;;;;;-0.20;99.90;;;;;;5091516;28;19916;-89
2021/12/20 07:18:33;;;;;;;;;;;-0.10;99.90;;;;;;5091165;28;19999;-85
2021/12/20 07:20:59;;;;;;;;;;;-0.10;99.90;;;;;;5091482;28;19904;-87
2021/12/20 07:23:25;;;;;;;;;;;-0.10;99.90;;;;;;5074765;28;19908;-86
2021/12/20 07:25:51;;;;;;;;;;;-0.10;99.90;;;;;;5057881;28;19909;-87
2021/12/20 07:28:16;;;;;;;;;;;-0.10;99.90;;;;;;5091274;28;19908;-88
2021/12/20 07:30:44;;;;;;;;;;;-0.10;99.90;;;;;;5058362;28;19908;-89
2021/12/20 07:33:10;;;;;;;;;;;-0.20;99.90;;;;;;5092205;28;19973;-88
2021/12/20 07:35:36;;;;;;;;;;;0.00;99.90;;;;;;5076111;28;19908;-90
2021/12/20 07:38:03;;;;;;;;;;;0.00;99.90;;;;;;5094081;28;19904;-87
2021/12/20 07:40:29;;;;;;;;;;;0.10;99.90;;;;;;5092256;28;20018;-88
2021/12/20 07:42:55;;;;;;;;;;;0.00;99.90;;;;;;5092647;28;20265;-88
2021/12/20 07:45:20;;;;;;;;;;;0.00;99.90;;;;;;5092730;28;19905;-88
2021/12/20 07:47:47;;;;;;;;;;;0.10;99.90;;;;;;5076766;28;19912;-88
2021/12/20 07:50:13;;;;;;;;;;;0.10;99.90;;;;;;5092494;28;19908;-88
2021/12/20 07:52:40;;;;;;;;;;;0.10;99.90;;;;;;5092671;28;19995;-87
2021/12/20 07:55:09;;;;;;;;;;;0.20;99.90;;;;;;5092676;28;19973;-88
2021/12/20 07:57:39;;;;;;;;;;;0.10;99.90;;;;;;5092434;28;19921;-91
2021/12/20 08:00:06;;;;;;;;;;;0.20;99.90;;;;;;5094082;28;20009;-88
2021/12/20 08:02:32;;;;;;;;;;;0.30;99.90;;;;;;5111585;28;19916;-89
2021/12/20 08:04:58;;;;;;;;;;;0.30;99.90;;;;;;5078984;28;19961;-88
2021/12/20 08:07:24;;;;;;;;;;;0.20;99.90;;;;;;5097646;28;19904;-88
2021/12/20 08:09:50;;;;;;;;;;;0.20;99.90;;;;;;5095752;28;19904;-87
2021/12/20 08:12:16;;;;;;;;;;;0.30;99.90;;;;;;5097695;28;20309;-87
2021/12/20 08:14:42;;;;;;;;;;;0.30;99.90;;;;;;5095011;28;20057;-88
2021/12/20 08:17:07;;;;;;;;;;;0.40;99.90;;;;;;5095026;28;19904;-87
2021/12/20 08:19:37;;;;;;;;;;;0.40;99.90;;;;;;5094939;28;20393;-88
2021/12/20 08:22:02;;;;;;;;;;;0.50;99.90;;;;;;5094611;28;19962;-88
2021/12/20 08:24:30;;;;;;;;;;;0.40;99.90;;;;;;5094567;28;19916;-87
2021/12/20 08:26:56;;;;;;;;;;;0.50;99.90;;;;;;5078175;28;20006;-87
2021/12/20 08:29:23;;;;;;;;;;;0.40;99.90;;;;;;5094278;28;20379;-88
2021/12/20 08:31:55;;;;;;;;;;;0.50;99.90;;;;;;5093834;28;19916;-86
2021/12/20 08:34:23;;;;;;;;;;;0.60;99.90;;;;;;5095069;28;19999;-88
2021/12/20 08:36:49;;;;;;;;;;;0.60;99.90;;;;;;5098418;28;19905;-86
2021/12/20 08:39:19;;;;;;;;;;;0.70;99.90;;;;;;5098231;28;19911;-87
2021/12/20 08:41:45;;;;;;;;;;;0.60;99.90;;;;;;5097224;28;19904;-87
2021/12/20 08:44:11;;;;;;;;;;;0.70;99.90;;;;;;5094997;28;19904;-87
2021/12/20 08:46:37;;;;;;;;;;;0.70;99.90;;;;;;5094374;28;20278;-87
2021/12/20 08:49:02;;;;;;;;;;;0.70;99.90;;;;;;5094348;28;19908;-86
2021/12/20 08:51:28;;;;;;;;;;;0.80;99.90;;;;;;5094174;28;19910;-86
2021/12/20 08:53:54;;;;;;;;;;;0.90;99.90;;;;;;5093892;28;19904;-87
2021/12/20 08:56:20;;;;;;;;;;;0.90;99.90;;;;;;5093519;28;20337;-88
2021/12/20 08:58:45;;;;;;;;;;;1.00;99.90;;;;;;5095310;28;20289;-88
2021/12/20 09:01:12;;;;;;;;;;;1.00;99.90;;;;;;5097109;28;19914;-89
2021/12/20 09:03:38;;;;;;;;;;;1.10;99.90;;;;;;5100000;28;19911;-87
2021/12/20 09:06:04;;;;;;;;;;;1.30;99.90;;;;;;5084390;28;19908;-87
2021/12/20 09:08:30;;;;;;;;;;;1.40;99.90;;;;;;5100891;28;19911;-88
2021/12/20 09:10:56;;;;;;;;;;;1.30;99.90;;;;;;5082548;28;20010;-86
2021/12/20 09:13:22;;;;;;;;;;;1.30;99.90;;;;;;5086300;28;19963;-88
2021/12/20 09:15:47;;;;;;;;;;;1.40;99.90;;;;;;5098890;28;20003;-88
2021/12/20 09:18:13;;;;;;;;;;;1.40;99.90;;;;;;5099642;28;19957;-87
2021/12/20 09:20:39;;;;;;;;;;;1.60;99.90;;;;;;5098239;28;19904;-89
2021/12/20 09:23:06;;;;;;;;;;;1.80;99.90;;;;;;5098187;28;19904;-88
2021/12/20 09:25:33;;;;;;;;;;;1.70;99.90;;;;;;5099889;28;19904;-91
2021/12/20 09:28:00;;;;;;;;;;;1.60;99.90;;;;;;5081702;28;19908;-89
2021/12/20 09:30:27;;;;;;;;;;;1.50;99.90;;;;;;5097140;28;19909;-88
2021/12/20 09:32:53;;;;;;;;;;;1.60;99.90;;;;;;5087812;28;19908;-89
2021/12/20 09:35:21;;;;;;;;;;;1.70;99.90;;;;;;5077458;28;19998;-87
2021/12/20 09:37:50;;;;;;;;;;;1.60;99.90;;;;;;5078710;28;19909;-87
2021/12/20 09:40:16;;;;;;;;;;;1.70;99.90;;;;;;5075771;28;19913;-88
2021/12/20 09:42:50;;;;;;;;;;;1.80;99.90;;;;;;5076279;28;19905;-88
2021/12/20 09:45:20;;;;;;;;;;;1.80;99.90;;;;;;5092988;28;19908;-87
2021/12/20 09:47:46;;;;;;;;;;;1.80;99.90;;;;;;5090934;28;19986;-88
2021/12/20 09:50:12;;;;;;;;;;;1.80;99.90;;;;;;5075512;28;19904;-88
2021/12/20 09:52:38;;;;;;;;;;;1.90;99.90;;;;;;5076749;28;19905;-86
2021/12/20 09:55:04;;;;;;;;;;;1.80;99.90;;;;;;5075426;28;19951;-86
2021/12/20 09:57:31;;;;;;;;;;;1.80;99.90;;;;;;5078936;28;19916;-86
2021/12/20 09:59:58;;;;;;;;;;;1.70;99.90;;;;;;5082345;28;19912;-89
2021/12/20 10:02:23;;;;;;;;;;;2.20;99.90;;;;;;5089599;28;19961;-87
2021/12/20 10:04:49;;;;;;;;;;;2.50;99.90;;;;;;5075317;28;19904;-85
2021/12/20 10:07:20;;;;;;;;;;;2.60;99.90;;;;;;5075050;28;19908;-88
2021/12/20 10:09:47;;;;;;;;;;;2.70;99.90;;;;;;5080186;28;19904;-87
2021/12/20 10:12:16;;;;;;;;;;;2.60;99.90;;;;;;5058188;28;20364;-89
2021/12/20 10:14:52;;;;;;;;;;;3.00;99.90;;;;;;5074564;28;19912;-89
2021/12/20 10:17:21;;;;;;;;;;;2.90;99.90;;;;;;5057525;28;19908;-85
2021/12/20 10:19:47;;;;;;;;;;;3.00;99.90;;;;;;5074686;28;19912;-86
2021/12/20 10:22:22;;;;;;;;;;;2.60;99.90;;;;;;5075382;28;20355;-88
2021/12/20 10:24:48;;;;;;;;;;;2.70;99.90;;;;;;5074269;28;20014;-88
2021/12/20 10:27:34;;;;;;;;;;;2.70;99.90;;;;;;5074354;28;19915;-90
2021/12/20 10:30:00;;;;;;;;;;;2.60;99.90;;;;;;5074198;28;19932;-87
2021/12/20 10:32:39;;;;;;;;;;;2.90;99.90;;;;;;5073457;28;19920;-86
2021/12/20 10:35:24;;;;;;;;;;;2.90;99.90;;;;;;5074129;28;19915;-86
2021/12/20 10:37:50;;;;;;;;;;;2.70;99.90;;;;;;5074895;28;19911;-86
2021/12/20 10:40:16;;;;;;;;;;;3.10;99.90;;;;;;5073877;28;19916;-89
2021/12/20 10:42:41;;;;;;;;;;;3.00;99.90;;;;;;5094181;28;19908;-86
2021/12/20 10:45:09;;;;;;;;;;;2.90;99.90;;;;;;5077870;28;19904;-88
2021/12/20 10:47:35;;;;;;;;;;;3.00;99.90;;;;;;5082116;28;19998;-87
2021/12/20 10:50:19;;;;;;;;;;;3.10;99.90;;;;;;5094931;28;19908;-86
2021/12/20 10:52:45;;;;;;;;;;;3.00;99.90;;;;;;5095229;28;19904;-86
2021/12/20 10:55:11;;;;;;;;;;;3.10;99.90;;;;;;5093939;28;20325;-88
2021/12/20 10:57:37;;;;;;;;;;;3.20;99.90;;;;;;5093351;28;19920;-87
2021/12/20 11:00:15;;;;;;;;;;;3.40;99.90;;;;;;5093998;28;19915;-90
2021/12/20 11:05:44;;;;;;;;;;;3.50;99.90;;;;;;5095063;28;19930;-88
2021/12/20 11:11:10;;;;;;;;;;;3.80;99.90;;;;;;5094447;28;19958;-85
2021/12/20 11:13:37;;;;;;;;;;;3.50;99.90;;;;;;5093875;28;19904;-88
2021/12/20 11:16:25;;;;;;;;;;;3.40;99.90;;;;;;5093648;28;19943;-89
2021/12/20 11:19:10;;;;;;;;;;;3.50;99.90;;;;;;5077292;28;19939;-85
2021/12/20 11:21:37;;;;;;;;;;;3.60;99.90;;;;;;5091421;28;19954;-88
2021/12/20 11:24:03;;;;;;;;;;;3.40;99.90;;;;;;5093768;28;20374;-87
2021/12/20 11:26:29;;;;;;;;;;;3.40;99.90;;;;;;5094086;28;19915;-88
2021/12/20 11:28:55;;;;;;;;;;;3.40;99.90;;;;;;5095260;28;20337;-88
2021/12/20 11:31:21;;;;;;;;;;;3.30;99.90;;;;;;5077855;28;20017;-88
2021/12/20 11:33:46;;;;;;;;;;;3.30;99.90;;;;;;5060942;28;19916;-86
2021/12/20 11:36:12;;;;;;;;;;;3.20;99.90;;;;;;5074994;28;19938;-88
2021/12/20 11:38:38;;;;;;;;;;;3.20;99.90;;;;;;5056501;28;19909;-88
2021/12/20 11:41:05;;;;;;;;;;;3.30;99.90;;;;;;5073024;28;19909;-86
2021/12/20 11:43:30;;;;;;;;;;;3.30;99.90;;;;;;5075411;28;20260;-88
2021/12/20 11:45:57;;;;;;;;;;;3.10;99.90;;;;;;5076281;28;19914;-87
2021/12/20 11:48:24;;;;;;;;;;;3.10;99.90;;;;;;5093036;28;19998;-86
2021/12/20 11:50:54;;;;;;;;;;;3.30;99.90;;;;;;5094347;28;20038;-87
2021/12/20 11:53:20;;;;;;;;;;;3.60;99.90;;;;;;5092724;28;19908;-87
2021/12/20 11:55:50;;;;;;;;;;;3.40;99.90;;;;;;5093262;28;19925;-86
2021/12/20 11:58:18;;;;;;;;;;;3.50;99.90;;;;;;5092590;28;20383;-89
2021/12/20 12:00:54;;;;;;;;;;;3.30;99.90;;;;;;5096963;28;20351;-90
2021/12/20 12:03:31;;;;;;;;;;;3.40;99.90;;;;;;5098397;28;20386;-87
2021/12/20 12:06:06;;;;;;;;;;;3.60;99.90;;;;;;5080765;28;19908;-90
2021/12/20 12:08:35;;;;;;;;;;;3.70;99.90;;;;;;5066679;28;20004;-90
2021/12/20 12:11:13;;;;;;;;;;;3.40;99.90;;;;;;5095249;28;19911;-90
2021/12/20 12:13:50;;;;;;;;;;;3.50;99.90;;;;;;5095693;28;19950;-89
2021/12/20 12:16:30;;;;;;;;;;;3.40;99.90;;;;;;5094763;28;20319;-88
2021/12/20 12:19:01;;;;;;;;;;;3.60;99.90;;;;;;5094753;28;20317;-89
2021/12/20 12:21:39;;;;;;;;;;;3.50;99.90;;;;;;5094301;28;19911;-89
2021/12/20 12:24:06;;;;;;;;;;;3.50;99.90;;;;;;5093666;28;20373;-89
2021/12/20 12:26:33;;;;;;;;;;;3.60;99.90;;;;;;5076813;28;20267;-89
2021/12/20 12:28:59;;;;;;;;;;;3.60;99.90;;;;;;5094156;28;19908;-88
2021/12/20 12:31:25;;;;;;;;;;;3.60;99.90;;;;;;5092262;28;20007;-87
2021/12/20 12:34:07;;;;;;;;;;;3.50;99.90;;;;;;5093561;28;19912;-89
2021/12/20 12:36:39;;;;;;;;;;;3.50;99.90;;;;;;5077044;28;19912;-87
2021/12/20 12:39:28;;;;;;;;;;;3.50;99.90;;;;;;5095174;28;19908;-88
2021/12/20 12:42:00;;;;;;;;;;;3.30;99.90;;;;;;5072542;28;20337;-86
2021/12/20 12:44:30;;;;;;;;;;;3.20;99.90;;;;;;5078814;28;19905;-88
2021/12/20 12:47:03;;;;;;;;;;;3.30;99.90;;;;;;5097154;28;19915;-87
2021/12/20 12:49:32;;;;;;;;;;;3.20;99.90;;;;;;5097953;28;19908;-88
2021/12/20 12:52:04;;;;;;;;;;;3.30;99.90;;;;;;5081590;28;19905;-87
2021/12/20 12:54:33;;;;;;;;;;;3.20;99.90;;;;;;5096737;28;20706;-88
2021/12/20 12:57:25;;;;;;;;;;;3.20;99.90;;;;;;5092469;28;19912;-87
2021/12/20 12:59:54;;;;;;;;;;;3.10;99.90;;;;;;5097279;28;20052;-89
2021/12/20 13:02:29;;;;;;;;;;;3.40;99.90;;;;;;5092207;28;20371;-88
2021/12/20 13:04:56;;;;;;;;;;;3.40;99.90;;;;;;5082690;28;19908;-86
2021/12/20 13:07:32;;;;;;;;;;;3.60;99.90;;;;;;5090048;28;19904;-88
2021/12/20 13:10:02;;;;;;;;;;;3.80;99.90;;;;;;5059865;28;19912;-88
2021/12/20 13:12:39;;;;;;;;;;;3.80;99.90;;;;;;5079017;28;19912;-88
2021/12/20 13:15:10;;;;;;;;;;;3.60;99.90;;;;;;5084902;28;19920;-89
2021/12/20 13:17:40;;;;;;;;;;;3.70;99.90;;;;;;5076016;28;19908;-88
2021/12/20 13:22:57;;;;;;;;;;;3.40;99.90;;;;;;5081519;28;19908;-89
2021/12/20 13:25:37;;;;;;;;;;;3.30;99.90;;;;;;5095974;28;20367;-90
2021/12/20 13:28:04;;;;;;;;;;;3.60;99.90;;;;;;5079011;28;19934;-88
2021/12/20 13:30:30;;;;;;;;;;;3.80;99.90;;;;;;5095289;28;20378;-86
2021/12/20 13:32:56;;;;;;;;;;;3.60;99.90;;;;;;5073219;28;19951;-86
2021/12/20 13:35:22;;;;;;;;;;;3.80;99.90;;;;;;5094364;28;19912;-89
2021/12/20 13:37:49;;;;;;;;;;;3.70;99.90;;;;;;5095609;28;19904;-88
2021/12/20 13:40:15;;;;;;;;;;;3.40;99.90;;;;;;5079436;28;20301;-88
2021/12/20 13:42:48;;;;;;;;;;;3.40;99.90;;;;;;5095798;28;19908;-87
2021/12/20 13:45:14;;;;;;;;;;;3.30;99.90;;;;;;5096936;28;19911;-89
2021/12/20 13:47:41;;;;;;;;;;;3.30;99.90;;;;;;5079564;28;19908;-88
2021/12/20 13:50:16;;;;;;;;;;;3.20;99.90;;;;;;5097992;28;20347;-89
2021/12/20 13:52:48;;;;;;;;;;;3.10;99.90;;;;;;5097415;28;19925;-87
2021/12/20 13:55:14;;;;;;;;;;;3.20;99.90;;;;;;5097140;28;20270;-86
2021/12/20 13:57:40;;;;;;;;;;;3.00;99.90;;;;;;5095495;28;20010;-88
2021/12/20 14:00:07;;;;;;;;;;;3.00;99.90;;;;;;5095312;28;20416;-88
2021/12/20 14:02:38;;;;;;;;;;;3.30;99.90;;;;;;5094719;28;19916;-90
2021/12/20 14:05:18;;;;;;;;;;;3.30;99.90;;;;;;5074780;28;20018;-88
2021/12/20 14:07:46;;;;;;;;;;;3.10;99.90;;;;;;5075118;28;19904;-87
2021/12/20 14:10:12;;;;;;;;;;;3.20;99.90;;;;;;5058544;28;19909;-88
2021/12/20 14:12:39;;;;;;;;;;;3.10;99.90;;;;;;5074730;28;19908;-89
2021/12/20 14:15:11;;;;;;;;;;;3.00;99.90;;;;;;5089510;28;20002;-90
2021/12/20 14:17:49;;;;;;;;;;;3.10;99.90;;;;;;5075238;28;19914;-89
2021/12/20 14:20:18;;;;;;;;;;;2.80;99.90;;;;;;5077238;28;20348;-90
2021/12/20 14:23:01;;;;;;;;;;;2.50;99.90;;;;;;5077392;28;19904;-88
2021/12/20 14:25:30;;;;;;;;;;;2.30;99.90;;;;;;5061473;28;19908;-88
2021/12/20 14:28:04;;;;;;;;;;;2.10;99.90;;;;;;5077476;28;19927;-90
2021/12/20 14:30:30;;;;;;;;;;;2.00;99.90;;;;;;5076484;28;19911;-89
2021/12/20 14:32:55;;;;;;;;;;;1.80;99.90;;;;;;5060939;28;19909;-87
2021/12/20 14:35:26;;;;;;;;;;;1.80;99.90;;;;;;5076897;28;19938;-88
2021/12/20 14:37:53;;;;;;;;;;;1.60;99.90;;;;;;5077095;28;19904;-87
2021/12/20 14:40:38;;;;;;;;;;;1.50;99.90;;;;;;5075683;28;19909;-88
2021/12/20 14:43:14;;;;;;;;;;;1.30;99.90;;;;;;5076250;28;19908;-90
2021/12/20 14:45:41;;;;;;;;;;;1.40;99.90;;;;;;5076435;28;19905;-88
2021/12/20 14:48:13;;;;;;;;;;;1.60;99.90;;;;;;5075340;28;19904;-90
2021/12/20 14:50:46;;;;;;;;;;;1.70;99.90;;;;;;5075174;28;19950;-88
2021/12/20 14:53:32;;;;;;;;;;;1.70;99.90;;;;;;5075186;28;19905;-89
2021/12/20 14:56:08;;;;;;;;;;;1.80;99.90;;;;;;5075268;28;19912;-88
2021/12/20 14:58:34;;;;;;;;;;;1.70;99.90;;;;;;5078229;28;20314;-88
2021/12/20 15:01:01;;;;;;;;;;;1.70;99.90;;;;;;5080358;28;19995;-88
2021/12/20 15:03:27;;;;;;;;;;;1.50;99.90;;;;;;5081507;28;19927;-87